»·PEaware :: N68HP KSBP-KMHV

N68HP :: KSBP-KMHV

FLIGHT INFORMATION

Flight Status: Arrived
Operator: Privately registered:
United States
More flights under this callsign
Pilot: Craig S. (18127)
Aircraft: ROBIN DR-400
(DR40)
More flights by this aircraft type
Origin: KSBP San Luis Co Regl
United States
Destination: KMHV Mojave
United States
More flights between these airports :: More routes between these airports
Route: +
File this flight plan on PilotEdge
Remarks:
Altitude:
(Current/Filed)
7,500ft
Speed:
(Current/Filed)
0kts
Departed: 06-Aug-18 01:06 PM
Arrived: 06-Aug-18 02:22 PM
Distance/Time
Traveled:
123nm/1:16
Distance/Time
To Go:
Arrived

Flight Plot

Page will automatically refresh every two minutes.

Flight plan parsing failed; only flown route is shown


Map Options




Map Legend


Flown Route
Filed Route
Departure Airport
Arrival Airport
Navaid (VOR, NDB)
Fix

Horizontal Profiles

Position Reports

Time Latitude Longitude Heading Altitude Ground
Speed
06-Aug-18 13:03 35.234430 -120.632966 304 178ft 0kts
06-Aug-18 13:04 35.234457 -120.633076 268 178ft 3kts
06-Aug-18 13:05 35.233207 -120.632404 213 178ft 0kts
06-Aug-18 13:06 35.233207 -120.632404 213 178ft 0kts
06-Aug-18 13:07 35.234603 -120.636182 298 199ft 63kts
06-Aug-18 13:08 35.243412 -120.658718 256 835ft 72kts
06-Aug-18 13:09 35.228276 -120.645261 107 1188ft 107kts
06-Aug-18 13:10 35.219522 -120.610209 105 1577ft 104kts
06-Aug-18 13:11 35.211498 -120.577896 105 2070ft 94kts
06-Aug-18 13:12 35.203948 -120.547160 105 2435ft 94kts
06-Aug-18 13:13 35.196453 -120.516286 105 2746ft 95kts
06-Aug-18 13:14 35.188967 -120.485373 105 3057ft 95kts
06-Aug-18 13:15 35.181381 -120.454306 105 3369ft 95kts
06-Aug-18 13:16 35.174406 -120.423110 98 3681ft 95kts
06-Aug-18 13:17 35.169330 -120.391385 98 3993ft 95kts
06-Aug-18 13:18 35.164194 -120.359628 98 4305ft 95kts
06-Aug-18 13:19 35.159136 -120.328425 99 4603ft 94kts
06-Aug-18 13:20 35.154089 -120.297330 99 4898ft 92kts
06-Aug-18 13:21 35.149144 -120.266847 99 5187ft 87kts
06-Aug-18 13:22 35.144439 -120.237696 99 5486ft 87kts
06-Aug-18 13:23 35.135495 -120.210083 111 5780ft 87kts
06-Aug-18 13:24 35.126578 -120.182825 112 6076ft 86kts
06-Aug-18 13:25 35.118078 -120.156073 111 6370ft 83kts
06-Aug-18 13:26 35.107789 -120.131744 116 6660ft 79kts
06-Aug-18 13:27 35.099013 -120.107189 116 6934ft 85kts
06-Aug-18 13:28 35.088819 -120.079102 115 7151ft 93kts
06-Aug-18 13:29 35.079233 -120.049324 111 7354ft 95kts
06-Aug-18 13:30 35.070207 -120.018646 111 7508ft 99kts
06-Aug-18 13:31 35.059798 -119.983564 111 7504ft 117kts
06-Aug-18 13:32 35.048719 -119.946128 111 7501ft 117kts
06-Aug-18 13:33 35.037738 -119.908829 111 7499ft 117kts
06-Aug-18 13:34 35.026732 -119.871518 111 7499ft 117kts
06-Aug-18 13:35 35.015626 -119.834078 111 7499ft 117kts
06-Aug-18 13:36 35.004473 -119.796706 111 7500ft 117kts
06-Aug-18 13:37 34.993211 -119.759206 111 7500ft 118kts
06-Aug-18 13:38 34.981900 -119.721729 111 7508ft 117kts
06-Aug-18 13:39 34.970566 -119.684207 111 7515ft 117kts
06-Aug-18 13:40 34.959296 -119.646805 111 7521ft 117kts
06-Aug-18 13:41 34.948063 -119.609297 111 7524ft 117kts
06-Aug-18 13:42 34.936923 -119.571926 111 7506ft 118kts
06-Aug-18 13:43 34.925681 -119.534386 111 7502ft 117kts
06-Aug-18 13:44 34.914532 -119.497143 111 7503ft 116kts
06-Aug-18 13:45 34.903306 -119.460027 111 7511ft 116kts
06-Aug-18 13:46 34.892038 -119.423364 111 7520ft 117kts
06-Aug-18 13:47 34.880399 -119.386284 111 7532ft 117kts
06-Aug-18 13:48 34.870710 -119.348373 95 7544ft 118kts
06-Aug-18 13:49 34.866677 -119.308720 95 7557ft 117kts
06-Aug-18 13:50 34.862631 -119.269186 94 7568ft 118kts
06-Aug-18 13:51 34.858678 -119.229255 94 7566ft 119kts
06-Aug-18 13:52 34.854582 -119.186924 94 7314ft 126kts
06-Aug-18 13:53 34.850616 -119.145729 94 7312ft 120kts
06-Aug-18 13:54 34.846733 -119.105524 94 7310ft 119kts
06-Aug-18 13:55 34.841188 -119.065574 100 7306ft 120kts
06-Aug-18 13:56 34.831455 -119.026734 106 7305ft 119kts
06-Aug-18 13:57 34.821415 -118.988126 106 7328ft 119kts
06-Aug-18 13:58 34.817694 -118.948473 91 7357ft 118kts
06-Aug-18 13:59 34.816560 -118.908508 88 7389ft 118kts
06-Aug-18 14:00 34.816330 -118.868511 88 7421ft 118kts
06-Aug-18 14:01 34.818822 -118.828613 78 7454ft 118kts
06-Aug-18 14:02 34.824067 -118.789138 78 7480ft 118kts
06-Aug-18 14:03 34.833093 -118.750630 69 7473ft 118kts
06-Aug-18 14:04 34.843892 -118.712768 67 7469ft 118kts
06-Aug-18 14:05 34.855217 -118.675092 56 7467ft 117kts
06-Aug-18 14:06 34.871462 -118.640812 56 7475ft 117kts
06-Aug-18 14:07 34.887747 -118.606363 56 7482ft 117kts
06-Aug-18 14:08 34.904536 -118.571072 56 7484ft 126kts
06-Aug-18 14:09 34.922536 -118.533657 56 7472ft 129kts
06-Aug-18 14:10 34.940911 -118.495912 56 7457ft 129kts
06-Aug-18 14:11 34.959334 -118.458400 56 7449ft 129kts
06-Aug-18 14:12 34.977507 -118.421638 56 7360ft 117kts
06-Aug-18 14:13 34.993835 -118.388384 56 7159ft 113kts
06-Aug-18 14:14 35.009931 -118.355472 56 6964ft 110kts
06-Aug-18 14:15 35.024615 -118.324901 56 6174ft 103kts
06-Aug-18 14:16 35.038517 -118.294656 56 5366ft 101kts
06-Aug-18 14:17 35.050683 -118.267102 56 5255ft 88kts
06-Aug-18 14:18 35.062533 -118.237924 76 5157ft 102kts
06-Aug-18 14:19 35.065988 -118.202507 82 4393ft 104kts
06-Aug-18 14:20 35.067431 -118.169083 82 3340ft 92kts
06-Aug-18 14:21 35.068223 -118.137771 95 3211ft 82kts
06-Aug-18 14:22 35.059149 -118.144417 271 2762ft 60kts
06-Aug-18 14:23 35.058582 -118.150005 137 2759ft 11kts
06-Aug-18 14:24 35.056935 -118.152004 196 2759ft 23kts

Navigation Log

Ident Type
Flight plan parsing failed, navigation log unavailable